createdAt,value
2022-12-28T00:02:15.324Z,0.70
2022-12-28T00:04:44.893Z,0.70
2022-12-28T00:07:13.020Z,0.87
2022-12-28T00:09:41.151Z,0.60
2022-12-28T00:12:09.585Z,0.83
2022-12-28T00:14:37.993Z,0.60
2022-12-28T00:17:06.168Z,0.60
2022-12-28T00:19:34.388Z,0.53
2022-12-28T00:22:04.111Z,0.57
2022-12-28T00:24:32.222Z,0.77
2022-12-28T00:27:00.364Z,0.83
2022-12-28T00:29:28.950Z,1.10
2022-12-28T00:31:57.321Z,1.13
2022-12-28T00:34:25.684Z,0.80
2022-12-28T00:37:12.307Z,0.90
2022-12-28T00:39:43.257Z,0.97
2022-12-28T00:42:12.364Z,1.00
2022-12-28T00:44:40.939Z,0.50
2022-12-28T00:47:09.189Z,0.60
2022-12-28T00:49:37.697Z,0.83
2022-12-28T00:52:06.527Z,0.90
2022-12-28T00:54:34.685Z,0.80
2022-12-28T00:57:04.338Z,1.10
2022-12-28T00:59:32.820Z,0.60
2022-12-28T01:02:01.160Z,1.07
2022-12-28T01:04:29.417Z,0.80
2022-12-28T01:06:57.761Z,0.60
2022-12-28T01:09:25.908Z,0.63
2022-12-28T01:11:54.052Z,0.73
2022-12-28T01:14:23.696Z,0.70
2022-12-28T01:16:52.555Z,0.93
2022-12-28T01:19:23.728Z,0.70
2022-12-28T01:21:53.085Z,0.60
2022-12-28T01:24:21.355Z,0.70
2022-12-28T01:26:49.520Z,0.60
2022-12-28T01:29:18.284Z,0.77
2022-12-28T01:31:47.920Z,0.83
2022-12-28T01:34:16.635Z,1.20
2022-12-28T01:36:45.377Z,0.70
2022-12-28T01:39:13.733Z,0.90
2022-12-28T01:41:42.882Z,0.77
2022-12-28T01:44:46.329Z,0.70
2022-12-28T01:47:22.194Z,1.20
2022-12-28T01:49:56.505Z,0.70
2022-12-28T01:52:29.495Z,0.70
2022-12-28T01:55:01.289Z,0.67
2022-12-28T01:57:33.048Z,0.80
2022-12-28T02:00:05.338Z,1.10
2022-12-28T02:02:35.975Z,0.73
2022-12-28T02:05:05.808Z,0.90
2022-12-28T02:07:41.233Z,0.93
2022-12-28T02:10:44.493Z,1.00
2022-12-28T02:13:01.515Z,0.90
2022-12-28T02:15:29.956Z,0.90
2022-12-28T02:18:00.363Z,1.07
2022-12-28T02:20:33.116Z,0.87
2022-12-28T02:23:26.450Z,0.90
2022-12-28T02:26:42.539Z,0.80
2022-12-28T02:29:58.399Z,1.10
2022-12-28T02:33:02.101Z,0.53
2022-12-28T02:35:45.220Z,0.83
2022-12-28T02:38:18.095Z,0.70
2022-12-28T02:40:49.998Z,0.90
2022-12-28T02:43:18.357Z,0.80
2022-12-28T02:46:05.226Z,0.60
2022-12-28T02:48:58.415Z,0.83
2022-12-28T02:51:45.123Z,0.60
2022-12-28T02:55:01.407Z,0.70
2022-12-28T02:57:43.637Z,0.80
2022-12-28T03:00:16.722Z,1.00
2022-12-28T03:03:05.898Z,0.80
2022-12-28T03:06:02.944Z,1.00
2022-12-28T03:08:40.536Z,0.80
2022-12-28T03:11:15.759Z,0.83
2022-12-28T03:13:52.090Z,0.87
2022-12-28T03:16:26.176Z,1.07
2022-12-28T03:19:16.906Z,0.80
2022-12-28T03:22:02.744Z,1.10
2022-12-28T03:24:53.810Z,1.37
2022-12-28T03:27:40.754Z,0.80
2022-12-28T03:30:31.677Z,0.67
2022-12-28T03:33:01.171Z,0.63
2022-12-28T03:35:37.029Z,1.03
2022-12-28T03:38:05.997Z,0.70
2022-12-28T03:40:43.055Z,1.30
2022-12-28T03:43:34.795Z,0.90
2022-12-28T03:46:10.356Z,1.20
2022-12-28T03:48:38.863Z,1.20
2022-12-28T03:51:07.612Z,0.63
2022-12-28T03:53:40.356Z,0.80
2022-12-28T03:56:15.259Z,0.93
2022-12-28T03:58:43.507Z,0.80
2022-12-28T04:01:12.561Z,0.80
2022-12-28T04:03:40.833Z,1.03
2022-12-28T04:06:09.613Z,0.60
2022-12-28T04:08:38.240Z,0.80
2022-12-28T04:11:06.654Z,0.60
2022-12-28T04:13:36.956Z,1.00
2022-12-28T04:16:08.436Z,0.80
2022-12-28T04:18:36.823Z,1.00
2022-12-28T04:21:05.265Z,0.70
2022-12-28T04:23:34.052Z,0.83
2022-12-28T04:26:03.590Z,0.80
2022-12-28T04:28:32.675Z,1.27
2022-12-28T04:31:04.504Z,0.63
2022-12-28T04:33:34.453Z,0.90
2022-12-28T04:36:07.328Z,0.60
2022-12-28T04:38:36.717Z,0.67
2022-12-28T04:41:06.174Z,0.70
2022-12-28T04:43:35.197Z,0.60
2022-12-28T04:46:06.644Z,0.83
2022-12-28T04:48:35.805Z,0.70
2022-12-28T04:51:09.035Z,1.20
2022-12-28T04:53:41.014Z,1.00
2022-12-28T04:56:11.211Z,0.80
2022-12-28T04:58:40.035Z,0.90
2022-12-28T05:01:12.127Z,0.80
2022-12-28T05:03:42.132Z,0.90
2022-12-28T05:06:14.141Z,1.07
2022-12-28T05:08:42.620Z,0.80
2022-12-28T05:11:13.360Z,0.60
2022-12-28T05:13:42.329Z,0.70
2022-12-28T05:16:14.635Z,0.90
2022-12-28T05:18:44.549Z,0.83
2022-12-28T05:21:15.720Z,0.90
2022-12-28T05:23:44.604Z,0.77
2022-12-28T05:26:14.967Z,0.73
2022-12-28T05:28:44.119Z,0.80
2022-12-28T05:31:15.825Z,0.90
2022-12-28T05:33:44.695Z,1.20
2022-12-28T05:36:14.502Z,1.53
2022-12-28T05:38:42.776Z,0.47
2022-12-28T05:41:14.492Z,1.20
2022-12-28T05:43:43.888Z,0.67
2022-12-28T05:46:16.051Z,1.00
2022-12-28T05:48:44.978Z,0.63
2022-12-28T05:51:15.715Z,1.10
2022-12-28T05:53:44.943Z,1.10
2022-12-28T05:56:15.290Z,1.03
2022-12-28T05:58:44.859Z,0.70
2022-12-28T06:01:16.911Z,1.10
2022-12-28T06:03:46.739Z,0.70
2022-12-28T06:06:16.811Z,1.00
2022-12-28T06:08:47.576Z,0.60
2022-12-28T06:11:17.911Z,0.83
2022-12-28T06:13:46.801Z,0.80
2022-12-28T06:16:18.573Z,1.20
2022-12-28T06:18:48.015Z,0.43
2022-12-28T06:21:17.986Z,0.80
2022-12-28T06:23:46.641Z,0.60
2022-12-28T06:26:17.576Z,0.83
2022-12-28T06:28:46.497Z,1.00
2022-12-28T06:31:17.997Z,1.23
2022-12-28T06:33:47.078Z,1.27
2022-12-28T06:36:20.277Z,0.87
2022-12-28T06:38:50.531Z,0.80
2022-12-28T06:41:20.803Z,0.70
2022-12-28T06:43:50.264Z,1.20
2022-12-28T06:46:21.446Z,1.23
2022-12-28T06:48:50.559Z,0.80
2022-12-28T06:51:19.942Z,1.37
2022-12-28T06:53:49.228Z,1.23
2022-12-28T06:56:19.738Z,1.20
2022-12-28T06:58:49.367Z,1.10
2022-12-28T07:01:22.014Z,1.00
2022-12-28T07:03:51.842Z,1.23
2022-12-28T07:06:21.986Z,1.13
2022-12-28T07:08:50.682Z,1.00
2022-12-28T07:11:20.502Z,1.23
2022-12-28T07:13:49.362Z,0.93
2022-12-28T07:16:21.944Z,0.93
2022-12-28T07:18:50.727Z,1.30
2022-12-28T07:21:21.655Z,0.87
2022-12-28T07:23:50.135Z,1.40
2022-12-28T07:26:20.502Z,1.10
2022-12-28T07:28:50.746Z,1.20
2022-12-28T07:31:23.777Z,1.17
2022-12-28T07:33:53.259Z,1.27
2022-12-28T07:36:23.064Z,1.40
2022-12-28T07:38:51.561Z,1.40
2022-12-28T07:41:21.240Z,1.13
2022-12-28T07:43:50.518Z,2.57
2022-12-28T07:46:22.900Z,2.40
2022-12-28T07:48:52.489Z,2.13
2022-12-28T07:51:22.468Z,2.30
2022-12-28T07:53:52.423Z,2.30
2022-12-28T07:56:21.613Z,3.43
2022-12-28T08:01:21.320Z,3.70
2022-12-28T08:03:54.941Z,2.20
2022-12-28T08:06:24.107Z,2.97
2022-12-28T08:08:54.883Z,2.27
2022-12-28T08:11:25.628Z,2.13
2022-12-28T08:13:56.338Z,2.50
2022-12-28T08:16:27.503Z,2.80
2022-12-28T08:18:57.392Z,2.40
2022-12-28T08:21:28.321Z,1.80
2022-12-28T08:23:57.162Z,2.43
2022-12-28T08:26:27.752Z,2.20
2022-12-28T08:29:00.263Z,1.87
2022-12-28T08:31:31.397Z,1.80
2022-12-28T08:34:02.188Z,1.70
2022-12-28T08:36:31.011Z,2.03
2022-12-28T08:38:59.282Z,2.40
2022-12-28T08:41:28.690Z,2.30
2022-12-28T08:43:57.970Z,3.23
2022-12-28T08:46:28.098Z,2.13
2022-12-28T08:48:58.086Z,2.43
2022-12-28T08:51:29.557Z,1.93
2022-12-28T08:53:57.835Z,1.40
2022-12-28T08:56:28.598Z,2.07
2022-12-28T08:58:58.144Z,1.50
2022-12-28T09:01:28.943Z,2.43
2022-12-28T09:03:58.564Z,2.83
2022-12-28T09:06:31.437Z,2.30
2022-12-28T09:09:06.243Z,2.43
2022-12-28T09:11:35.717Z,2.30
2022-12-28T09:14:05.425Z,2.13
2022-12-28T09:16:34.073Z,2.33
2022-12-28T09:19:05.484Z,2.70
2022-12-28T09:21:38.039Z,2.80
2022-12-28T09:24:06.862Z,2.60
2022-12-28T09:26:37.647Z,2.30
2022-12-28T09:29:10.291Z,2.20
2022-12-28T09:31:40.545Z,2.20
2022-12-28T09:37:03.384Z,1.77
2022-12-28T09:39:31.812Z,2.50
2022-12-28T09:42:03.276Z,2.23
2022-12-28T09:44:49.117Z,2.40
2022-12-28T09:47:22.759Z,2.30
2022-12-28T09:50:12.844Z,2.23
2022-12-28T09:52:53.191Z,2.57
2022-12-28T09:55:22.574Z,2.53
2022-12-28T09:57:54.537Z,3.10
2022-12-28T10:00:25.024Z,3.20
2022-12-28T10:02:58.566Z,2.40
2022-12-28T10:05:27.948Z,2.93
2022-12-28T10:08:02.710Z,3.13
2022-12-28T10:10:31.520Z,2.80
2022-12-28T10:13:04.578Z,2.87
2022-12-28T10:15:34.236Z,2.53
2022-12-28T10:18:02.460Z,3.03
2022-12-28T10:20:31.208Z,3.50
2022-12-28T10:23:01.408Z,3.53
2022-12-28T10:25:29.757Z,2.77
2022-12-28T10:27:58.845Z,3.30
2022-12-28T10:30:28.405Z,3.60
2022-12-28T10:33:03.363Z,3.43
2022-12-28T10:35:37.504Z,3.33
2022-12-28T10:38:22.338Z,3.40
2022-12-28T10:41:00.432Z,3.40
2022-12-28T10:43:31.267Z,3.13
2022-12-28T10:46:00.838Z,3.53
2022-12-28T10:48:33.330Z,3.50
2022-12-28T10:51:11.823Z,3.73
2022-12-28T10:53:45.521Z,3.83
2022-12-28T10:56:25.888Z,4.47
2022-12-28T10:58:56.219Z,4.20
2022-12-28T11:01:29.584Z,4.63
2022-12-28T11:04:05.256Z,3.97
2022-12-28T11:06:35.666Z,4.73
2022-12-28T11:09:15.970Z,5.07
2022-12-28T11:11:45.563Z,4.73
2022-12-28T11:14:23.221Z,3.97
2022-12-28T11:16:51.791Z,4.50
2022-12-28T11:19:23.411Z,4.27
2022-12-28T11:21:52.455Z,3.17
2022-12-28T11:24:27.127Z,4.03
2022-12-28T11:26:55.465Z,3.57
2022-12-28T11:29:23.897Z,3.47
2022-12-28T11:31:58.116Z,4.00
2022-12-28T11:34:29.599Z,3.40
2022-12-28T11:36:58.176Z,3.57
2022-12-28T11:39:45.057Z,3.40
2022-12-28T11:42:38.929Z,3.47
2022-12-28T11:45:03.320Z,3.37
2022-12-28T11:47:34.129Z,3.23
2022-12-28T11:50:39.470Z,2.97
2022-12-28T11:53:23.268Z,4.20
2022-12-28T11:56:07.767Z,3.23
2022-12-28T11:59:14.265Z,3.13
2022-12-28T12:01:53.545Z,3.07
2022-12-28T12:04:47.251Z,3.43
2022-12-28T12:07:19.689Z,3.30
2022-12-28T12:09:49.405Z,3.00
2022-12-28T12:12:45.282Z,2.27
2022-12-28T12:15:17.988Z,3.10
2022-12-28T12:17:48.872Z,2.73
2022-12-28T12:20:31.027Z,3.00
2022-12-28T12:23:04.299Z,3.23
2022-12-28T12:25:38.587Z,3.00
2022-12-28T12:28:17.374Z,3.23
2022-12-28T12:30:47.370Z,2.50
2022-12-28T12:33:23.550Z,3.23
2022-12-28T12:36:02.012Z,2.87
2022-12-28T12:38:46.725Z,2.53
2022-12-28T12:41:30.126Z,2.50
2022-12-28T12:44:14.287Z,3.70
2022-12-28T12:47:09.005Z,2.73
2022-12-28T12:49:56.450Z,3.10
2022-12-28T12:52:42.193Z,2.43
2022-12-28T12:55:24.586Z,2.83
2022-12-28T12:57:59.188Z,2.60
2022-12-28T13:00:35.762Z,2.53
2022-12-28T13:03:20.400Z,2.97
2022-12-28T13:05:53.901Z,3.17
2022-12-28T13:08:26.449Z,3.23
2022-12-28T13:10:56.144Z,3.03
2022-12-28T13:13:32.550Z,3.37
2022-12-28T13:16:05.033Z,2.97
2022-12-28T13:18:44.469Z,3.37
2022-12-28T13:21:20.647Z,3.43
2022-12-28T13:23:49.313Z,2.83
2022-12-28T13:26:18.591Z,2.40
2022-12-28T13:28:52.535Z,2.47
2022-12-28T13:31:24.698Z,2.97
2022-12-28T13:33:57.359Z,3.17
2022-12-28T13:36:25.562Z,2.60
2022-12-28T13:39:12.897Z,2.53
2022-12-28T13:41:48.916Z,3.20
2022-12-28T13:44:38.108Z,2.90
2022-12-28T13:47:14.128Z,2.57
2022-12-28T13:49:47.062Z,3.13
2022-12-28T13:52:20.552Z,2.30
2022-12-28T13:54:52.356Z,2.50
2022-12-28T14:00:12.447Z,2.23
2022-12-28T14:02:42.878Z,2.27
2022-12-28T14:05:17.833Z,2.67
2022-12-28T14:07:46.937Z,2.10
2022-12-28T14:10:15.243Z,2.83
2022-12-28T14:12:46.262Z,3.00
2022-12-28T14:15:16.454Z,2.93
2022-12-28T14:17:48.758Z,2.73
2022-12-28T14:20:17.807Z,2.63
2022-12-28T14:22:46.287Z,3.40
2022-12-28T14:25:16.821Z,2.50
2022-12-28T14:27:48.988Z,2.90
2022-12-28T14:30:25.662Z,2.40
2022-12-28T14:32:56.044Z,2.70
2022-12-28T14:35:27.098Z,2.80
2022-12-28T14:37:58.016Z,2.40
2022-12-28T14:40:30.750Z,2.87
2022-12-28T14:43:00.155Z,3.20
2022-12-28T14:46:07.646Z,2.57
2022-12-28T14:48:40.453Z,3.37
2022-12-28T14:51:26.611Z,3.17
2022-12-28T14:54:19.396Z,3.03
2022-12-28T14:56:50.598Z,3.40
2022-12-28T14:59:23.199Z,2.53
2022-12-28T15:01:52.588Z,3.33
2022-12-28T15:04:36.842Z,2.83
2022-12-28T15:07:06.365Z,3.73
2022-12-28T15:09:35.211Z,3.43
2022-12-28T15:12:11.389Z,4.37
2022-12-28T15:14:39.904Z,3.20
2022-12-28T15:17:08.889Z,3.93
2022-12-28T15:19:38.588Z,4.20
2022-12-28T15:22:07.017Z,4.40
2022-12-28T15:24:35.348Z,4.73
2022-12-28T15:27:04.361Z,5.10
2022-12-28T15:29:56.181Z,5.77
2022-12-28T15:32:20.995Z,5.40
2022-12-28T15:34:51.032Z,5.13
2022-12-28T15:37:19.215Z,5.43
2022-12-28T15:39:47.498Z,6.50
2022-12-28T15:42:15.728Z,5.53
2022-12-28T15:44:44.731Z,7.00
2022-12-28T15:47:13.046Z,6.80
2022-12-28T15:49:41.261Z,6.00
2022-12-28T15:52:10.873Z,5.20
2022-12-28T15:54:42.507Z,5.37
2022-12-28T15:57:15.677Z,5.70
2022-12-28T15:59:44.314Z,5.83
2022-12-28T16:02:13.242Z,55.37
2022-12-28T16:04:41.587Z,20.00
2022-12-28T16:07:11.863Z,8.17
2022-12-28T16:09:40.383Z,6.63
2022-12-28T16:12:08.883Z,7.57
2022-12-28T16:14:37.196Z,6.87
2022-12-28T16:17:05.407Z,7.27
2022-12-28T16:19:33.562Z,8.80
2022-12-28T16:22:02.167Z,6.20
2022-12-28T16:24:31.685Z,6.30
2022-12-28T16:26:59.978Z,9.43
2022-12-28T16:29:28.316Z,7.13
2022-12-28T16:31:56.698Z,6.70
2022-12-28T16:34:25.053Z,6.93
2022-12-28T16:36:57.043Z,6.17
2022-12-28T16:39:25.559Z,6.63
2022-12-28T16:41:55.172Z,7.57
2022-12-28T16:44:25.149Z,6.87
2022-12-28T16:46:54.340Z,7.83
2022-12-28T16:49:22.585Z,7.53
2022-12-28T16:51:50.690Z,7.03
2022-12-28T16:54:20.233Z,7.27
2022-12-28T16:56:49.538Z,7.53
2022-12-28T16:59:21.520Z,11.43
2022-12-28T17:01:50.213Z,9.30
2022-12-28T17:04:18.766Z,17.13
2022-12-28T17:06:50.931Z,8.60
2022-12-28T17:09:19.839Z,11.93
2022-12-28T17:11:48.685Z,10.57
2022-12-28T17:14:35.953Z,9.60
2022-12-28T17:17:05.477Z,11.77
2022-12-28T17:19:33.680Z,8.70
2022-12-28T17:22:01.944Z,9.43
2022-12-28T17:24:30.594Z,9.87
2022-12-28T17:27:05.106Z,10.90
2022-12-28T17:29:38.355Z,10.57
2022-12-28T17:32:07.540Z,10.57
2022-12-28T17:34:35.960Z,10.13
2022-12-28T17:37:04.343Z,9.60
2022-12-28T17:39:39.548Z,10.17
2022-12-28T17:42:08.510Z,8.57
2022-12-28T17:44:38.133Z,9.60
2022-12-28T17:47:06.525Z,10.27
2022-12-28T17:49:35.173Z,9.30
2022-12-28T17:52:03.343Z,10.27
2022-12-28T17:54:31.462Z,10.27
2022-12-28T17:56:59.746Z,11.57
2022-12-28T17:59:28.639Z,11.50
2022-12-28T18:01:58.356Z,12.20
2022-12-28T18:04:26.880Z,11.50
2022-12-28T18:06:55.113Z,11.03
2022-12-28T18:09:27.918Z,11.10
2022-12-28T18:11:57.166Z,11.63
2022-12-28T18:14:25.308Z,11.07
2022-12-28T18:16:53.669Z,11.50
2022-12-28T18:19:23.337Z,10.83
2022-12-28T18:21:51.500Z,11.43
2022-12-28T18:24:21.018Z,10.70
2022-12-28T18:26:49.848Z,10.63
2022-12-28T18:29:18.061Z,10.93
2022-12-28T18:31:46.380Z,9.60
2022-12-28T18:34:15.543Z,11.33
2022-12-28T18:36:45.112Z,11.33
2022-12-28T18:39:13.397Z,10.90
2022-12-28T18:41:41.927Z,10.13
2022-12-28T18:44:10.382Z,9.87
2022-12-28T18:46:38.626Z,10.30
2022-12-28T18:49:07.479Z,9.13
2022-12-28T18:51:35.657Z,9.63
2022-12-28T18:54:05.651Z,10.80
2022-12-28T18:56:34.531Z,9.10
2022-12-28T18:59:02.785Z,9.37
2022-12-28T19:04:19.580Z,9.97
2022-12-28T19:06:48.475Z,9.23
2022-12-28T19:09:18.427Z,9.70
2022-12-28T19:11:47.007Z,9.60
2022-12-28T19:14:17.152Z,9.23
2022-12-28T19:16:45.604Z,9.10
2022-12-28T19:19:17.023Z,8.77
2022-12-28T19:21:45.778Z,8.13
2022-12-28T19:24:15.919Z,8.47
2022-12-28T19:26:46.768Z,8.67
2022-12-28T19:29:16.600Z,7.80
2022-12-28T19:31:45.755Z,9.07
2022-12-28T19:34:13.947Z,7.50
2022-12-28T19:36:42.198Z,7.73
2022-12-28T19:39:12.218Z,8.07
2022-12-28T19:41:40.438Z,7.03
2022-12-28T19:44:10.023Z,7.47
2022-12-28T19:46:38.424Z,6.80
2022-12-28T19:49:06.653Z,6.53
2022-12-28T19:51:35.057Z,8.23
2022-12-28T19:54:03.782Z,6.97
2022-12-28T19:56:32.169Z,6.90
2022-12-28T19:59:05.897Z,6.47
2022-12-28T20:01:39.024Z,6.87
2022-12-28T20:04:13.352Z,5.90
2022-12-28T20:06:44.393Z,7.43
2022-12-28T20:09:13.935Z,6.47
2022-12-28T20:11:42.638Z,7.03
2022-12-28T20:14:13.725Z,6.47
2022-12-28T20:16:44.667Z,6.73
2022-12-28T20:19:13.819Z,7.40
2022-12-28T20:21:42.665Z,6.60
2022-12-28T20:24:13.300Z,6.67
2022-12-28T20:26:41.607Z,6.10
2022-12-28T20:29:09.851Z,6.67
2022-12-28T20:31:38.197Z,6.43
2022-12-28T20:34:08.504Z,5.03
2022-12-28T20:36:36.642Z,6.00
2022-12-28T20:39:05.387Z,5.03
2022-12-28T20:41:52.211Z,6.53
2022-12-28T20:44:25.567Z,5.60
2022-12-28T20:46:54.486Z,5.73
2022-12-28T20:49:25.135Z,5.70
2022-12-28T20:51:53.645Z,4.87
2022-12-28T20:54:22.507Z,4.63
2022-12-28T20:56:55.219Z,4.50
2022-12-28T20:59:26.029Z,4.40
2022-12-28T21:01:54.922Z,4.50
2022-12-28T21:04:25.931Z,4.90
2022-12-28T21:06:55.155Z,5.10
2022-12-28T21:09:23.541Z,4.63
2022-12-28T21:11:52.105Z,4.10
2022-12-28T21:14:20.925Z,4.53
2022-12-28T21:16:49.339Z,4.80
2022-12-28T21:19:17.859Z,4.20
2022-12-28T21:21:49.452Z,4.13
2022-12-28T21:24:18.386Z,4.83
2022-12-28T21:26:46.578Z,3.70
2022-12-28T21:29:16.848Z,4.30
2022-12-28T21:31:48.922Z,5.10
2022-12-28T21:34:17.232Z,5.00
2022-12-28T21:36:45.434Z,5.20
2022-12-28T21:39:15.517Z,4.50
2022-12-28T21:41:52.904Z,4.70
2022-12-28T21:44:23.195Z,4.43
2022-12-28T21:46:52.759Z,4.80
2022-12-28T21:49:22.405Z,4.80
2022-12-28T21:51:51.520Z,4.97
2022-12-28T21:54:22.605Z,4.57
2022-12-28T21:56:52.936Z,5.63
2022-12-28T21:59:21.427Z,5.50
2022-12-28T22:02:07.567Z,5.37
2022-12-28T22:04:58.696Z,5.03
2022-12-28T22:07:30.617Z,5.00
2022-12-28T22:10:18.019Z,5.77
2022-12-28T22:12:46.308Z,5.57
2022-12-28T22:15:34.257Z,5.73
2022-12-28T22:18:04.862Z,5.20
2022-12-28T22:20:34.971Z,4.83
2022-12-28T22:23:03.431Z,6.37
2022-12-28T22:25:33.040Z,5.67
2022-12-28T22:28:01.642Z,5.07
2022-12-28T22:30:30.153Z,5.33
2022-12-28T22:32:58.845Z,6.57
2022-12-28T22:35:27.588Z,6.20
2022-12-28T22:37:55.777Z,5.07
2022-12-28T22:40:24.285Z,5.50
2022-12-28T22:42:54.249Z,5.90
2022-12-28T22:45:24.879Z,6.33
2022-12-28T22:47:59.243Z,6.27
2022-12-28T22:50:29.328Z,6.93
2022-12-28T22:52:58.260Z,7.17
2022-12-28T22:55:26.599Z,8.43
2022-12-28T22:57:56.521Z,9.73
2022-12-28T23:00:24.691Z,10.17
2022-12-28T23:02:52.966Z,8.70
2022-12-28T23:05:21.795Z,8.60
2022-12-28T23:07:49.976Z,9.57
2022-12-28T23:10:18.264Z,9.47
2022-12-28T23:12:46.585Z,9.67
2022-12-28T23:15:19.759Z,8.67
2022-12-28T23:17:49.232Z,9.17
2022-12-28T23:20:35.961Z,9.20
2022-12-28T23:23:21.746Z,8.13
2022-12-28T23:26:07.295Z,8.43
2022-12-28T23:28:37.017Z,7.80
2022-12-28T23:31:06.830Z,8.50
2022-12-28T23:33:36.697Z,8.33
2022-12-28T23:36:06.043Z,8.50
2022-12-28T23:38:34.616Z,8.90
2022-12-28T23:41:24.481Z,7.27
2022-12-28T23:43:52.621Z,8.47
2022-12-28T23:46:22.378Z,7.43
2022-12-28T23:48:50.644Z,8.97
2022-12-28T23:51:18.876Z,7.87
2022-12-28T23:53:47.087Z,8.13
2022-12-28T23:56:15.382Z,8.53
2022-12-28T23:58:43.494Z,7.77
